Time;durP1;ratioP1;P1;durP2;ratioP2;P2;SDS_P1;SDS_P2;PMS_P1;PMS_P2;Temp;Humidity;BMP_temperature;BMP_pressure;BME280_temperature;BME280_humidity;BME280_pressure;Samples;Min_cycle;Max_cycle;Signal;HPM_P1;HPM_P2
2022/11/05 00:09:30;;;;;;;18.38;14.35;;;;;20.30;100323.00;;;;2085096;28;20221;-80
2022/11/05 00:10:30;;;;;;;15.80;14.00;;;;;20.40;100315.00;;;;2083256;28;20301;-80
2022/11/05 00:16:51;;;;;;;15.93;12.15;;;;;20.30;100321.00;;;;2082799;28;20209;-80
2022/11/05 00:17:52;;;;;;;12.23;10.97;;;;;20.30;100322.00;;;;2083720;28;20214;-80
2022/11/05 00:19:07;;;;;;;14.10;11.77;;;;;20.30;100320.00;;;;2083910;28;20248;-80
2022/11/05 00:20:08;;;;;;;15.23;11.82;;;;;20.30;100314.00;;;;2083261;28;20209;-80
2022/11/05 00:25:12;;;;;;;12.93;10.93;;;;;20.30;100324.00;;;;2080723;28;20217;-80
2022/11/05 00:25:15;;;;;;;13.20;11.23;;;;;20.30;100334.00;;;;2082993;28;20284;-80
2022/11/05 00:26:16;;;;;;;12.18;10.45;;;;;20.30;100335.00;;;;2082611;28;20628;-80
2022/11/05 00:27:16;;;;;;;11.77;10.47;;;;;20.30;100320.00;;;;2082576;28;20225;-81
2022/11/05 00:28:16;;;;;;;14.30;10.90;;;;;20.30;100324.00;;;;2084044;28;20217;-80
2022/11/05 00:29:16;;;;;;;14.57;10.70;;;;;20.30;100330.00;;;;2084010;28;20216;-80
2022/11/05 00:30:19;;;;;;;13.57;10.57;;;;;20.30;100325.00;;;;2083871;28;20217;-80
2022/11/05 00:31:19;;;;;;;11.82;9.90;;;;;20.30;100346.00;;;;2084115;28;20213;-80
2022/11/05 00:32:19;;;;;;;12.80;10.63;;;;;20.30;100330.00;;;;2082887;28;20680;-80
2022/11/05 00:33:20;;;;;;;11.13;9.90;;;;;20.30;100321.00;;;;2082081;28;20248;-80
2022/11/05 00:34:20;;;;;;;11.90;9.40;;;;;20.30;100318.00;;;;2084148;28;20217;-80
2022/11/05 00:35:21;;;;;;;10.97;9.20;;;;;20.30;100275.00;;;;2082391;28;20214;-80
2022/11/05 00:36:21;;;;;;;11.40;9.43;;;;;20.30;100335.00;;;;2077919;28;20711;-80
2022/11/05 00:37:21;;;;;;;13.23;10.03;;;;;20.30;100332.00;;;;2082495;28;20208;-80
2022/11/05 00:38:22;;;;;;;10.43;8.43;;;;;20.30;100332.00;;;;2083041;28;20240;-80
2022/11/05 00:39:22;;;;;;;10.47;8.60;;;;;20.30;100313.00;;;;2083143;28;20302;-80
2022/11/05 00:40:22;;;;;;;11.20;8.63;;;;;20.30;100337.00;;;;2076177;28;20214;-80
2022/11/05 00:41:23;;;;;;;9.37;8.33;;;;;20.30;100324.00;;;;2076496;28;20221;-80
2022/11/05 00:45:01;;;;;;;9.23;7.90;;;;;20.30;100347.00;;;;2080323;28;20220;-80
2022/11/05 00:46:01;;;;;;;9.43;7.80;;;;;20.20;100353.00;;;;2084279;28;20212;-80
2022/11/05 00:49:39;;;;;;;10.88;7.72;;;;;20.30;100350.00;;;;2082224;28;20708;-80
2022/11/05 00:50:40;;;;;;;11.27;8.77;;;;;20.20;100342.00;;;;2084196;28;20237;-80
2022/11/05 00:51:40;;;;;;;8.90;7.90;;;;;20.30;100355.00;;;;2084448;28;20248;-80
2022/11/05 00:52:55;;;;;;;8.57;7.13;;;;;20.20;100352.00;;;;2084137;28;20231;-80
2022/11/05 00:53:55;;;;;;;11.77;8.73;;;;;20.20;100350.00;;;;2084561;28;20232;-80
2022/11/05 00:54:56;;;;;;;9.00;7.53;;;;;20.20;100353.00;;;;2084504;28;20209;-80
2022/11/05 00:55:56;;;;;;;8.40;7.40;;;;;20.20;100354.00;;;;2084411;28;20240;-80
2022/11/05 00:56:56;;;;;;;8.37;7.27;;;;;20.20;100339.00;;;;2083898;28;20291;-81
2022/11/05 00:57:57;;;;;;;9.40;7.70;;;;;20.20;100350.00;;;;2075925;28;20221;-80
2022/11/05 00:58:57;;;;;;;10.20;7.50;;;;;20.20;100363.00;;;;2083539;28;20218;-79
2022/11/05 00:59:57;;;;;;;10.50;6.93;;;;;20.20;100363.00;;;;2085453;28;20754;-80
2022/11/05 01:00:58;;;;;;;8.07;6.10;;;;;20.20;100360.00;;;;2084520;28;20680;-80
2022/11/05 01:01:59;;;;;;;8.32;6.88;;;;;20.20;100355.00;;;;2083949;28;20761;-80
2022/11/05 01:03:00;;;;;;;8.07;7.30;;;;;20.20;100365.00;;;;2084414;28;20213;-80
2022/11/05 01:04:01;;;;;;;10.32;7.90;;;;;20.20;100370.00;;;;2083733;28;20698;-80
2022/11/05 01:05:01;;;;;;;7.83;6.53;;;;;20.20;100368.00;;;;2083741;28;20221;-80
2022/11/05 01:06:12;;;;;;;7.27;6.50;;;;;20.20;100372.00;;;;2084752;28;20217;-79
2022/11/05 01:07:13;;;;;;;7.20;6.32;;;;;20.20;100369.00;;;;2084355;28;20384;-80
2022/11/05 01:08:14;;;;;;;9.03;6.30;;;;;20.20;100369.00;;;;2085685;28;20236;-80
2022/11/05 01:09:14;;;;;;;7.28;6.38;;;;;20.20;100368.00;;;;2084377;28;20240;-79
2022/11/05 01:10:14;;;;;;;7.53;6.20;;;;;20.10;100371.00;;;;2084958;28;20209;-80
2022/11/05 01:11:31;;;;;;;7.50;6.37;;;;;20.20;100290.00;;;;2085056;28;20225;-80
2022/11/05 01:12:32;;;;;;;7.93;6.38;;;;;20.20;100377.00;;;;2083333;28;20220;-80
2022/11/05 01:13:32;;;;;;;7.40;6.40;;;;;20.20;100370.00;;;;2083869;28;20294;-80
2022/11/05 01:14:32;;;;;;;7.37;6.60;;;;;20.20;100384.00;;;;2083622;28;20213;-80
2022/11/05 01:15:34;;;;;;;7.77;6.20;;;;;20.20;100378.00;;;;2084181;28;20228;-80
2022/11/05 01:16:34;;;;;;;8.38;6.47;;;;;20.10;100378.00;;;;2084484;28;20220;-80
2022/11/05 01:17:35;;;;;;;7.77;6.20;;;;;20.10;100373.00;;;;2076277;28;20685;-80
2022/11/05 01:18:36;;;;;;;7.00;6.30;;;;;20.10;100373.00;;;;2084303;28;20213;-80
2022/11/05 01:19:38;;;;;;;7.57;6.65;;;;;20.10;100382.00;;;;2084088;28;20209;-80
2022/11/05 01:20:38;;;;;;;8.38;5.63;;;;;20.10;100380.00;;;;2084131;28;20212;-80
2022/11/05 01:21:39;;;;;;;7.60;6.10;;;;;20.10;100382.00;;;;2083130;28;20252;-80
2022/11/05 01:22:39;;;;;;;6.97;5.60;;;;;20.10;100381.00;;;;2082776;28;20209;-80
2022/11/05 01:23:39;;;;;;;6.80;5.67;;;;;20.10;100383.00;;;;2084717;28;20232;-80
2022/11/05 01:24:39;;;;;;;6.93;5.60;;;;;20.10;100380.00;;;;2084925;28;20210;-80
2022/11/05 01:25:41;;;;;;;7.70;6.20;;;;;20.10;100386.00;;;;2084787;28;20236;-80
2022/11/05 01:26:41;;;;;;;7.00;6.13;;;;;20.10;100358.00;;;;2084352;28;20208;-79
2022/11/05 01:27:42;;;;;;;6.83;5.47;;;;;20.10;100391.00;;;;2083412;28;20716;-80
2022/11/05 01:28:42;;;;;;;7.40;5.50;;;;;20.10;100387.00;;;;2083558;28;20888;-80
2022/11/05 01:29:42;;;;;;;6.67;5.80;;;;;20.10;100387.00;;;;2083587;28;20223;-80
2022/11/05 01:30:43;;;;;;;7.27;5.40;;;;;20.10;100391.00;;;;2087999;28;20217;-80
2022/11/05 01:31:43;;;;;;;6.40;5.47;;;;;20.10;100384.00;;;;2087617;28;20233;-80
2022/11/05 01:32:44;;;;;;;7.17;5.40;;;;;20.10;100386.00;;;;2084635;28;20259;-80
2022/11/05 01:33:44;;;;;;;6.30;5.40;;;;;20.10;100382.00;;;;2085041;28;20224;-79
2022/11/05 01:34:44;;;;;;;6.63;5.83;;;;;20.10;100378.00;;;;2085103;28;20247;-79
2022/11/05 01:35:44;;;;;;;7.00;5.97;;;;;20.10;100379.00;;;;2084283;28;20225;-79
2022/11/05 01:36:45;;;;;;;7.50;5.10;;;;;20.10;100384.00;;;;2084028;28;20244;-80
2022/11/05 01:37:45;;;;;;;5.50;5.00;;;;;20.10;100383.00;;;;2084273;28;20580;-80
2022/11/05 01:38:46;;;;;;;7.27;5.80;;;;;20.10;100359.00;;;;2083325;28;20700;-80
2022/11/05 01:39:46;;;;;;;6.63;5.90;;;;;20.10;100390.00;;;;2075184;28;20217;-80
2022/11/05 01:40:46;;;;;;;6.03;5.37;;;;;20.10;100404.00;;;;2084280;28;20220;-80
2022/11/05 01:41:47;;;;;;;6.10;5.43;;;;;20.10;100399.00;;;;2084773;28;20226;-80
2022/11/05 01:42:47;;;;;;;6.53;5.23;;;;;20.10;100398.00;;;;2084684;28;20209;-81
2022/11/05 01:43:51;;;;;;;6.20;5.60;;;;;20.10;100396.00;;;;2084962;28;20220;-80
2022/11/05 01:45:00;;;;;;;6.78;5.22;;;;;20.10;100394.00;;;;2083830;28;20216;-80
2022/11/05 01:46:00;;;;;;;5.50;5.00;;;;;20.10;100141.00;;;;2083547;28;20637;-80
2022/11/05 01:47:01;;;;;;;5.53;5.03;;;;;20.10;100334.00;;;;2077653;28;20288;-80
2022/11/05 01:48:03;;;;;;;5.77;5.27;;;;;20.10;100391.00;;;;2084392;28;20222;-80
2022/11/05 01:49:21;;;;;;;6.47;4.70;;;;;20.10;100391.00;;;;2084410;28;20268;-80
2022/11/05 01:50:27;;;;;;;6.10;4.88;;;;;20.10;100389.00;;;;2080872;28;20216;-80
2022/11/05 01:51:28;;;;;;;6.53;5.05;;;;;20.10;100394.00;;;;2081515;28;20219;-80
2022/11/05 01:52:29;;;;;;;6.37;4.80;;;;;20.10;100394.00;;;;2084612;28;20248;-80
2022/11/05 01:53:33;;;;;;;6.22;5.20;;;;;20.10;100398.00;;;;2075937;28;20299;-80
2022/11/05 01:54:33;;;;;;;6.93;5.50;;;;;20.00;100397.00;;;;2068784;28;20284;-79
2022/11/05 01:55:36;;;;;;;5.50;4.90;;;;;20.00;100394.00;;;;2082584;28;20274;-79
2022/11/05 01:56:41;;;;;;;5.57;4.95;;;;;20.00;100403.00;;;;2063998;28;20752;-79
2022/11/05 01:57:42;;;;;;;6.38;4.80;;;;;20.00;100420.00;;;;2068062;28;20214;-79
2022/11/05 01:58:53;;;;;;;6.10;4.93;;;;;20.00;100393.00;;;;2083623;28;20213;-80
2022/11/05 01:59:55;;;;;;;5.78;5.20;;;;;20.00;100404.00;;;;2077136;28;20827;-79
2022/11/05 02:00:55;;;;;;;5.75;4.55;;;;;20.00;100403.00;;;;2084063;28;20581;-80
2022/11/05 02:01:56;;;;;;;5.23;4.73;;;;;20.00;100403.00;;;;2083130;28;20312;-80
2022/11/05 02:02:56;;;;;;;5.30;4.80;;;;;20.00;100403.00;;;;2083411;28;20676;-79
2022/11/05 02:03:59;;;;;;;5.80;4.30;;;;;20.00;100400.00;;;;2074934;28;20706;-80
2022/11/05 02:05:00;;;;;;;6.47;5.22;;;;;20.00;100406.00;;;;2083562;28;20685;-79
2022/11/05 02:06:00;;;;;;;5.45;4.65;;;;;20.00;100410.00;;;;2083804;28;20229;-79
2022/11/05 02:07:01;;;;;;;5.27;4.60;;;;;20.00;100410.00;;;;2084222;28;20209;-79
2022/11/05 02:08:02;;;;;;;5.28;4.78;;;;;20.00;100408.00;;;;2086011;28;21122;-79
2022/11/05 02:09:04;;;;;;;5.37;4.60;;;;;20.00;100412.00;;;;2083388;28;20224;-79
2022/11/05 02:10:05;;;;;;;6.35;4.85;;;;;20.00;100403.00;;;;2083944;28;20217;-80
2022/11/05 02:11:05;;;;;;;5.00;4.50;;;;;20.00;100381.00;;;;2084034;28;20356;-79
2022/11/05 02:12:06;;;;;;;6.23;5.10;;;;;20.00;100410.00;;;;2083774;28;20243;-80
2022/11/05 02:13:06;;;;;;;5.10;4.60;;;;;20.00;100410.00;;;;2075582;28;20209;-80
2022/11/05 02:14:07;;;;;;;5.30;4.80;;;;;20.00;100409.00;;;;2081885;28;20224;-79
2022/11/05 02:15:11;;;;;;;4.80;4.30;;;;;20.00;100410.00;;;;2083575;28;20224;-79
2022/11/05 02:16:35;;;;;;;6.40;5.40;;;;;20.00;100425.00;;;;2083844;28;20896;-80
2022/11/05 02:18:10;;;;;;;4.90;4.40;;;;;20.00;100416.00;;;;2083031;28;20221;-80
2022/11/05 02:19:48;;;;;;;6.15;4.75;;;;;20.00;100417.00;;;;2061996;28;20215;-80
2022/11/05 02:21:13;;;;;;;5.68;4.43;;;;;20.00;100420.00;;;;2083305;28;20209;-80
2022/11/05 02:22:36;;;;;;;4.97;4.47;;;;;19.90;100415.00;;;;2080091;28;20226;-80
2022/11/05 02:23:39;;;;;;;5.38;4.88;;;;;20.00;100418.00;;;;2077219;28;20305;-80
2022/11/05 02:25:03;;;;;;;5.85;4.65;;;;;20.00;100424.00;;;;2075953;28;20260;-80
2022/11/05 02:26:15;;;;;;;6.55;4.70;;;;;20.00;100421.00;;;;2079227;28;20739;-80
2022/11/05 02:27:17;;;;;;;6.13;4.72;;;;;19.90;100422.00;;;;2085849;28;20664;-80
2022/11/05 02:28:18;;;;;;;5.22;4.05;;;;;19.90;100434.00;;;;2082998;28;20404;-79
2022/11/05 02:29:39;;;;;;;4.70;4.30;;;;;20.00;100434.00;;;;2082981;28;20705;-79
2022/11/05 02:30:46;;;;;;;5.97;4.70;;;;;20.00;100439.00;;;;2084323;28;20213;-80
2022/11/05 02:31:48;;;;;;;4.80;4.30;;;;;19.90;100411.00;;;;2082793;28;20205;-80
2022/11/05 02:33:00;;;;;;;5.30;4.80;;;;;19.90;100431.00;;;;2074838;28;20214;-80
2022/11/05 02:34:03;;;;;;;5.93;4.35;;;;;19.90;100415.00;;;;2077367;28;20212;-80
2022/11/05 02:35:21;;;;;;;4.57;4.10;;;;;19.90;100428.00;;;;2075076;28;20673;-80
2022/11/05 02:36:30;;;;;;;6.80;5.05;;;;;19.90;100431.00;;;;2084489;28;20857;-79
2022/11/05 02:37:43;;;;;;;5.28;4.70;;;;;19.90;100429.00;;;;2080855;28;20222;-79
2022/11/05 02:39:21;;;;;;;4.82;4.32;;;;;19.90;100437.00;;;;2082835;28;20209;-80
2022/11/05 02:40:28;;;;;;;4.60;3.65;;;;;19.90;100442.00;;;;2082572;28;20224;-79
2022/11/05 02:41:37;;;;;;;5.60;5.00;;;;;19.90;100435.00;;;;2075287;28;20260;-80
2022/11/05 02:43:06;;;;;;;5.35;4.05;;;;;19.90;100430.00;;;;2075891;28;20221;-80
2022/11/05 02:44:21;;;;;;;6.70;4.82;;;;;19.90;100435.00;;;;2078596;28;20237;-80
2022/11/05 02:45:40;;;;;;;5.10;4.00;;;;;19.90;100428.00;;;;2082880;28;20688;-79
2022/11/05 02:47:06;;;;;;;5.18;4.40;;;;;19.90;100433.00;;;;2082907;28;20208;-79
2022/11/05 02:48:09;;;;;;;5.78;4.63;;;;;19.90;100431.00;;;;2082822;28;20726;-81
2022/11/05 02:49:10;;;;;;;4.60;4.15;;;;;19.90;100431.00;;;;2083769;28;20656;-82
2022/11/05 02:50:28;;;;;;;5.40;4.53;;;;;19.90;100435.00;;;;2084620;28;20292;-80
2022/11/05 02:51:36;;;;;;;5.68;4.63;;;;;19.90;100427.00;;;;2083402;28;20232;-79
2022/11/05 02:52:42;;;;;;;5.13;4.50;;;;;19.90;100416.00;;;;2074784;28;20333;-80
2022/11/05 02:54:11;;;;;;;5.15;4.65;;;;;19.90;100433.00;;;;2060192;28;20218;-80
2022/11/05 02:55:33;;;;;;;4.55;4.15;;;;;19.90;100424.00;;;;2075021;28;20225;-80
2022/11/05 02:56:35;;;;;;;6.05;4.65;;;;;19.90;100434.00;;;;2077133;28;20220;-79
2022/11/05 02:57:36;;;;;;;8.10;4.60;;;;;19.90;100436.00;;;;2074805;28;20697;-79
2022/11/05 02:58:36;;;;;;;4.70;4.20;;;;;19.90;100433.00;;;;2083525;28;20213;-80
2022/11/05 02:59:36;;;;;;;5.90;4.07;;;;;19.90;100434.00;;;;2084300;28;20213;-79
2022/11/05 03:00:52;;;;;;;5.10;4.40;;;;;19.90;100432.00;;;;2084276;28;20237;-79
2022/11/05 03:01:53;;;;;;;6.00;4.90;;;;;19.90;100434.00;;;;2082425;28;20220;-80
2022/11/05 03:02:53;;;;;;;7.23;4.70;;;;;19.90;100439.00;;;;2082720;28;20224;-80
2022/11/05 03:03:55;;;;;;;8.43;4.50;;;;;19.90;100443.00;;;;2082862;28;20291;-80
2022/11/05 03:04:56;;;;;;;5.38;4.57;;;;;19.90;100432.00;;;;2083328;28;20213;-80
2022/11/05 03:06:28;;;;;;;5.67;4.47;;;;;19.90;100434.00;;;;2083550;28;20257;-80
2022/11/05 03:07:42;;;;;;;5.18;4.32;;;;;19.90;100398.00;;;;2081882;28;20217;-80
2022/11/05 03:09:13;;;;;;;6.35;4.38;;;;;19.90;100434.00;;;;2076674;28;20895;-79
2022/11/05 03:10:26;;;;;;;4.72;4.22;;;;;19.70;100428.00;;;;2082078;28;20706;-80
2022/11/05 03:11:28;;;;;;;4.82;4.32;;;;;19.90;100391.00;;;;2074827;28;20213;-80
2022/11/05 03:12:50;;;;;;;4.93;4.30;;;;;19.90;100423.00;;;;2059901;28;20215;-80
2022/11/05 03:14:18;;;;;;;4.93;4.47;;;;;19.90;100426.00;;;;2073225;28;20296;-80
2022/11/05 03:15:24;;;;;;;5.93;4.38;;;;;19.90;100387.00;;;;2079058;28;20300;-80
2022/11/05 03:16:30;;;;;;;4.47;4.07;;;;;19.80;100427.00;;;;2082364;28;20298;-80
2022/11/05 03:17:48;;;;;;;4.97;4.30;;;;;19.90;100421.00;;;;2074974;28;20215;-80
2022/11/05 03:19:03;;;;;;;4.57;4.10;;;;;19.90;100433.00;;;;2082946;28;20221;-80
2022/11/05 03:20:14;;;;;;;4.43;4.03;;;;;19.90;100428.00;;;;2074664;28;20224;-79
2022/11/05 03:21:18;;;;;;;5.93;4.20;;;;;19.90;100423.00;;;;2069586;28;20214;-80
2022/11/05 03:22:27;;;;;;;4.72;4.10;;;;;19.80;100419.00;;;;2074827;28;20230;-80
2022/11/05 03:23:48;;;;;;;4.70;4.30;;;;;19.80;100424.00;;;;2071630;28;20685;-80
2022/11/05 03:25:10;;;;;;;6.25;4.78;;;;;19.90;100425.00;;;;2080920;28;20619;-80
2022/11/05 03:26:17;;;;;;;5.05;4.30;;;;;19.80;100405.00;;;;2076683;28;20757;-80
2022/11/05 03:27:21;;;;;;;4.70;4.20;;;;;19.80;100445.00;;;;2069952;28;20210;-79
2022/11/05 03:28:23;;;;;;;4.90;4.47;;;;;19.80;100428.00;;;;2071135;28;20230;-80
2022/11/05 03:29:25;;;;;;;4.93;4.32;;;;;19.80;100430.00;;;;2074867;28;20251;-80
2022/11/05 03:30:25;;;;;;;4.65;4.25;;;;;19.80;100434.00;;;;2082378;28;20746;-80
2022/11/05 03:31:26;;;;;;;4.17;3.60;;;;;19.80;100384.00;;;;2082822;28;20263;-80
2022/11/05 03:32:26;;;;;;;4.93;4.43;;;;;19.80;100396.00;;;;2073971;28;20405;-80
2022/11/05 03:33:27;;;;;;;5.27;4.77;;;;;19.80;100425.00;;;;2067144;28;20219;-79
2022/11/05 03:34:36;;;;;;;5.55;5.05;;;;;19.80;100384.00;;;;2059351;28;20245;-79
2022/11/05 03:35:38;;;;;;;4.38;3.97;;;;;19.80;100395.00;;;;2063612;28;20219;-79
2022/11/05 03:36:40;;;;;;;4.70;4.30;;;;;19.80;100417.00;;;;2066949;28;20268;-79
2022/11/05 03:37:41;;;;;;;5.03;4.60;;;;;19.80;100440.00;;;;2066763;28;20735;-80
2022/11/05 03:38:43;;;;;;;4.75;4.28;;;;;19.80;100429.00;;;;2059124;28;20247;-79
2022/11/05 03:39:45;;;;;;;4.60;4.20;;;;;19.80;100432.00;;;;2049719;28;20215;-79
2022/11/05 03:40:46;;;;;;;5.45;4.60;;;;;19.80;100444.00;;;;2067372;28;20292;-79
2022/11/05 03:41:48;;;;;;;5.10;4.60;;;;;19.80;100411.00;;;;2070606;28;20214;-80
2022/11/05 03:42:49;;;;;;;5.35;4.22;;;;;19.80;100393.00;;;;2067394;28;20295;-79
2022/11/05 03:43:52;;;;;;;5.55;4.82;;;;;19.80;100431.00;;;;2060514;28;20222;-80
2022/11/05 03:44:54;;;;;;;5.68;4.53;;;;;19.80;100401.00;;;;2067886;28;20217;-79
2022/11/05 03:45:59;;;;;;;5.07;4.68;;;;;19.80;100445.00;;;;2066583;28;20245;-79
2022/11/05 03:47:05;;;;;;;4.47;4.07;;;;;19.80;100438.00;;;;2060621;28;20674;-80
2022/11/05 03:48:05;;;;;;;5.70;4.75;;;;;19.80;100448.00;;;;2059920;28;20769;-79
2022/11/05 03:49:06;;;;;;;4.80;4.30;;;;;19.80;100446.00;;;;2070153;28;20213;-79
2022/11/05 03:50:22;;;;;;;5.68;4.47;;;;;19.80;100451.00;;;;2066298;28;20736;-79
2022/11/05 03:51:46;;;;;;;4.90;4.50;;;;;19.80;100459.00;;;;2065988;28;20282;-80
2022/11/05 03:52:55;;;;;;;5.20;4.13;;;;;19.80;100462.00;;;;2068354;28;20706;-79
2022/11/05 03:53:57;;;;;;;5.13;4.63;;;;;19.80;100411.00;;;;2066587;28;20210;-80
2022/11/05 03:54:57;;;;;;;4.75;4.00;;;;;19.80;100462.00;;;;2059655;28;20251;-79
2022/11/05 03:56:09;;;;;;;4.73;4.30;;;;;19.70;100457.00;;;;2075131;28;20226;-79
2022/11/05 03:57:11;;;;;;;5.47;4.47;;;;;19.70;100460.00;;;;2080105;28;20632;-79
2022/11/05 03:58:11;;;;;;;5.65;4.65;;;;;19.80;100465.00;;;;2087239;28;20283;-79
2022/11/05 03:59:12;;;;;;;5.30;4.80;;;;;19.80;100466.00;;;;2083493;28;20298;-80
2022/11/05 04:00:12;;;;;;;5.10;4.60;;;;;19.80;100462.00;;;;2075272;28;20241;-79
2022/11/05 04:01:13;;;;;;;7.43;5.33;;;;;19.80;100464.00;;;;2082325;28;20208;-79
2022/11/05 04:02:14;;;;;;;4.73;4.30;;;;;19.80;100468.00;;;;2082119;28;20838;-79
2022/11/05 04:03:14;;;;;;;4.88;4.47;;;;;19.70;100464.00;;;;2082543;28;20212;-80
2022/11/05 04:04:15;;;;;;;4.60;4.20;;;;;19.80;100468.00;;;;2082571;28;20294;-79
2022/11/05 04:05:15;;;;;;;5.90;4.63;;;;;19.80;100470.00;;;;2083335;28;20213;-79
2022/11/05 04:14:08;;;;;;;5.43;4.93;;;;;19.70;100469.00;;;;2081533;28;20213;-79
2022/11/05 04:15:09;;;;;;;4.60;4.20;;;;;19.70;100465.00;;;;2084504;28;20213;-79
2022/11/05 04:17:28;;;;;;;5.15;4.65;;;;;19.70;100474.00;;;;2084348;28;20216;-79
2022/11/05 04:18:28;;;;;;;5.33;4.80;;;;;19.70;100479.00;;;;2084743;28;20216;-80
2022/11/05 04:25:01;;;;;;;6.40;4.80;;;;;19.70;100461.00;;;;2077788;28;20221;-79
2022/11/05 04:26:01;;;;;;;4.93;4.53;;;;;19.70;100474.00;;;;2085689;28;20240;-79
2022/11/05 04:27:01;;;;;;;5.80;4.60;;;;;19.70;100467.00;;;;2085573;28;20213;-79
2022/11/05 04:28:02;;;;;;;4.77;4.37;;;;;19.70;100467.00;;;;2085685;28;20212;-79
2022/11/05 04:30:21;;;;;;;5.28;4.75;;;;;19.70;100476.00;;;;2084646;28;20213;-79
2022/11/05 04:31:22;;;;;;;5.77;5.17;;;;;19.70;100483.00;;;;2085412;28;20244;-79
2022/11/05 04:32:22;;;;;;;5.10;4.60;;;;;19.70;100477.00;;;;2084539;28;20272;-79
2022/11/05 04:33:22;;;;;;;4.80;4.30;;;;;19.60;100476.00;;;;2084841;28;20213;-79
2022/11/05 04:34:23;;;;;;;5.13;4.63;;;;;19.70;100479.00;;;;2085284;28;20236;-80
2022/11/05 04:35:23;;;;;;;4.97;4.50;;;;;19.60;100472.00;;;;2084335;28;20205;-79
2022/11/05 04:36:23;;;;;;;4.57;4.17;;;;;19.70;100482.00;;;;2083988;28;20689;-79
2022/11/05 04:37:24;;;;;;;5.30;4.67;;;;;19.70;100476.00;;;;2083480;28;20224;-79
2022/11/05 04:38:24;;;;;;;4.93;4.20;;;;;19.70;100484.00;;;;2084124;28;20228;-79
2022/11/05 04:39:24;;;;;;;5.93;4.20;;;;;19.60;100482.00;;;;2075829;28;20218;-80
2022/11/05 04:40:25;;;;;;;4.70;4.30;;;;;19.70;100481.00;;;;2084779;28;20210;-80
2022/11/05 04:41:25;;;;;;;6.37;5.03;;;;;19.60;100483.00;;;;2084977;28;22355;-80
2022/11/05 04:42:26;;;;;;;5.30;4.23;;;;;19.60;100481.00;;;;2081632;28;20288;-80
2022/11/05 04:43:27;;;;;;;5.30;4.80;;;;;19.70;100489.00;;;;2084821;28;20217;-79
2022/11/05 04:44:27;;;;;;;4.60;4.00;;;;;19.70;100493.00;;;;2085365;28;20209;-80
2022/11/05 04:45:28;;;;;;;5.03;4.60;;;;;19.70;100477.00;;;;2084394;28;20286;-79
2022/11/05 04:46:29;;;;;;;4.70;4.30;;;;;19.60;100478.00;;;;2084597;28;20255;-80
2022/11/05 04:47:29;;;;;;;4.50;4.10;;;;;19.60;100492.00;;;;2085347;28;20217;-79
2022/11/05 04:48:29;;;;;;;5.07;4.30;;;;;19.60;100483.00;;;;2083032;28;20209;-79
2022/11/05 04:49:30;;;;;;;6.80;4.47;;;;;19.60;100491.00;;;;2084217;28;20209;-80
2022/11/05 04:50:30;;;;;;;4.63;4.23;;;;;19.70;100462.00;;;;2084073;28;20204;-79
2022/11/05 04:51:30;;;;;;;7.43;4.47;;;;;19.60;100446.00;;;;2083343;28;20241;-79
2022/11/05 04:52:31;;;;;;;4.60;4.20;;;;;19.60;100487.00;;;;2083790;28;20793;-79
2022/11/05 04:53:31;;;;;;;4.20;3.90;;;;;19.60;100482.00;;;;2084905;28;20214;-79
2022/11/05 04:54:31;;;;;;;5.20;4.80;;;;;19.60;100487.00;;;;2084216;28;20707;-80
2022/11/05 04:55:32;;;;;;;4.90;4.40;;;;;19.60;100408.00;;;;2085096;28;20706;-79
2022/11/05 04:56:32;;;;;;;4.83;4.20;;;;;19.60;100488.00;;;;2083559;28;20272;-79
2022/11/05 04:57:32;;;;;;;4.80;4.30;;;;;19.60;100484.00;;;;2083447;28;20217;-79
2022/11/05 04:58:33;;;;;;;4.60;4.20;;;;;19.60;100479.00;;;;2084281;28;21045;-80
2022/11/05 04:59:33;;;;;;;4.50;4.10;;;;;19.60;100484.00;;;;2084194;28;20235;-80
2022/11/05 05:00:33;;;;;;;4.87;4.33;;;;;19.60;100493.00;;;;2084235;28;20589;-80
2022/11/05 05:01:34;;;;;;;5.00;4.43;;;;;19.60;100483.00;;;;2084853;28;20643;-80
2022/11/05 05:02:34;;;;;;;5.60;4.30;;;;;19.60;100490.00;;;;2084694;28;20576;-80
2022/11/05 05:03:35;;;;;;;4.70;4.30;;;;;19.60;100485.00;;;;2084955;28;20726;-80
2022/11/05 05:04:35;;;;;;;4.83;4.27;;;;;19.60;100483.00;;;;2080442;28;20210;-80
2022/11/05 05:05:35;;;;;;;4.80;4.30;;;;;19.60;100476.00;;;;2084297;28;20233;-80
2022/11/05 05:06:37;;;;;;;4.70;4.30;;;;;19.60;100484.00;;;;2083724;28;20213;-80
2022/11/05 05:07:37;;;;;;;4.88;4.40;;;;;19.60;100492.00;;;;2087890;28;20245;-80
2022/11/05 05:08:37;;;;;;;5.00;4.60;;;;;19.60;100486.00;;;;2084753;28;20232;-80
2022/11/05 05:09:38;;;;;;;5.97;5.00;;;;;19.60;100489.00;;;;2084061;28;20213;-80
2022/11/05 05:10:38;;;;;;;5.00;4.60;;;;;19.60;100492.00;;;;2084153;28;20676;-80
2022/11/05 05:11:39;;;;;;;4.73;4.03;;;;;19.60;100476.00;;;;2083718;28;20209;-80
2022/11/05 05:12:40;;;;;;;4.88;4.40;;;;;19.60;100376.00;;;;2075145;28;20214;-80
2022/11/05 05:13:40;;;;;;;4.70;4.30;;;;;19.60;100358.00;;;;2076052;28;20764;-80
2022/11/05 05:14:40;;;;;;;5.30;4.80;;;;;19.60;100474.00;;;;2084409;28;20598;-80
2022/11/05 05:15:41;;;;;;;4.40;4.00;;;;;19.60;100495.00;;;;2084350;28;20241;-79
2022/11/05 05:16:41;;;;;;;5.10;4.17;;;;;19.60;100495.00;;;;2084467;28;20637;-79
2022/11/05 05:17:41;;;;;;;5.13;4.27;;;;;19.60;100503.00;;;;2084002;28;20656;-80
2022/11/05 05:18:42;;;;;;;4.60;4.20;;;;;19.60;100494.00;;;;2084475;28;20232;-78
2022/11/05 05:22:20;;;;;;;4.32;3.90;;;;;19.60;100499.00;;;;2074969;28;20232;-79
2022/11/05 05:23:20;;;;;;;4.63;3.93;;;;;19.50;100501.00;;;;2078270;28;20304;-79
2022/11/05 05:24:23;;;;;;;5.20;4.27;;;;;19.60;100477.00;;;;2084234;28;20248;-79
2022/11/05 05:25:24;;;;;;;5.25;4.35;;;;;19.60;100477.00;;;;2084322;28;20223;-80
2022/11/05 05:26:24;;;;;;;5.40;4.90;;;;;19.60;100489.00;;;;2084437;28;20228;-79
2022/11/05 05:27:28;;;;;;;4.40;4.00;;;;;19.60;100488.00;;;;2075858;28;20312;-80
2022/11/05 05:28:28;;;;;;;4.15;3.75;;;;;19.60;100490.00;;;;2076515;28;20210;-79
2022/11/05 05:29:28;;;;;;;4.97;4.47;;;;;19.60;100499.00;;;;2083657;28;20258;-80
2022/11/05 05:30:29;;;;;;;4.60;4.20;;;;;19.60;100497.00;;;;2084289;28;20211;-80
2022/11/05 05:31:29;;;;;;;4.50;4.10;;;;;19.60;100499.00;;;;2083662;28;20241;-80
2022/11/05 05:32:29;;;;;;;3.83;3.53;;;;;19.50;100497.00;;;;2083379;28;20217;-80
2022/11/05 05:33:30;;;;;;;4.63;4.23;;;;;19.50;100498.00;;;;2084244;28;20214;-80
2022/11/05 05:34:30;;;;;;;4.90;4.40;;;;;19.50;100495.00;;;;2084552;28;20716;-80
2022/11/05 05:35:30;;;;;;;4.93;4.43;;;;;19.50;100487.00;;;;2076585;28;20217;-80
2022/11/05 05:36:31;;;;;;;4.40;4.00;;;;;19.50;100496.00;;;;2084111;28;20224;-80
2022/11/05 05:37:31;;;;;;;4.63;3.60;;;;;19.50;100489.00;;;;2084063;28;20225;-80
2022/11/05 05:38:31;;;;;;;4.47;4.07;;;;;19.50;100497.00;;;;2083903;28;20221;-80
2022/11/05 05:39:32;;;;;;;6.20;4.30;;;;;19.50;100499.00;;;;2084459;28;20224;-80
2022/11/05 05:40:32;;;;;;;4.27;3.87;;;;;19.60;100504.00;;;;2084273;28;20744;-80
2022/11/05 05:41:32;;;;;;;5.77;4.57;;;;;19.60;100513.00;;;;2084757;28;20217;-80
2022/11/05 05:42:33;;;;;;;4.90;4.20;;;;;19.50;100505.00;;;;2083068;28;20319;-80
2022/11/05 05:43:33;;;;;;;5.87;4.40;;;;;19.50;100507.00;;;;2081942;28;20428;-80
2022/11/05 05:44:34;;;;;;;4.10;3.70;;;;;19.50;100500.00;;;;2084330;28;20732;-80
2022/11/05 05:45:34;;;;;;;6.23;4.77;;;;;19.50;100507.00;;;;2083523;28;20221;-80
2022/11/05 05:46:35;;;;;;;4.57;4.03;;;;;19.50;100505.00;;;;2075889;28;20297;-80
2022/11/05 05:47:35;;;;;;;5.57;5.07;;;;;19.50;100508.00;;;;2084436;28;20456;-80
2022/11/05 05:48:35;;;;;;;4.23;3.80;;;;;19.50;100512.00;;;;2085052;28;20228;-80
2022/11/05 05:49:36;;;;;;;5.07;4.30;;;;;19.50;100501.00;;;;2084151;28;20339;-79
2022/11/05 05:50:36;;;;;;;6.10;4.70;;;;;19.50;100474.00;;;;2083598;28;20220;-80
2022/11/05 05:51:36;;;;;;;4.47;4.03;;;;;19.50;100505.00;;;;2083893;28;20244;-80
2022/11/05 05:52:37;;;;;;;4.70;4.30;;;;;19.50;100508.00;;;;2083834;28;20225;-80
2022/11/05 05:53:37;;;;;;;4.87;4.37;;;;;19.50;100508.00;;;;2084235;28;20224;-80
2022/11/05 05:54:37;;;;;;;4.70;4.30;;;;;19.50;100508.00;;;;2083222;28;20225;-80
2022/11/05 05:55:38;;;;;;;4.80;4.40;;;;;19.50;100513.00;;;;2082389;28;20220;-80